Wasco, California
Current Conditions -  °F | °C
As of 2:54 AM on Saturday 20 Dec 2014 (Local Time) from KBFL Reporting Station
Broken Clouds Broken Clouds  
Wind Chill: 51°   Ceiling: 8000
Heat Index: 51°   Visibility: 10mi
Dew Point: 44°   Wind: 6mph
Humidity: 77%   Direction: 90°E
Pressure: 30.17"   Gusts: NA
Location:  35.59°N, 119.33°W
Report Text: KBFL 201054Z AUTO 09005KT 10SM BKN080 11/07 A3017 RMK AO2 SLP213 T01060067
Loading
Personal Weather Stations






























Interactive Weather Map New forecast layout! Learn more

10-Day Weather Forecast

Advertisements
Track Severe Weather on mobile